Time,TemperatureF,DewpointF,PressureIn,WindDirection,WindDirectionDegrees,WindSpeedMPH,WindSpeedGustMPH,Humidity,HourlyPrecipIn,Conditions,Clouds,dailyrainin,SoftwareType,DateUTC
2013-08-16 00:01:00,61.2,57.9,30.08,SE,142,0.0,0.0,89,0.00,,,0.00,WeatherCatV1.21B27,2013-08-16 05:01:00,
2013-08-16 00:06:00,60.8,57.8,30.08,SE,142,0.0,0.0,90,0.00,,,0.00,WeatherCatV1.21B27,2013-08-16 05:06:00,
2013-08-16 00:11:00,60.5,57.5,30.08,SE,142,0.0,0.0,90,0.00,,,0.00,WeatherCatV1.21B27,2013-08-16 05:11:00,
2013-08-16 00:16:00,60.1,57.5,30.08,SE,142,0.0,0.0,91,0.00,,,0.00,WeatherCatV1.21B27,2013-08-16 05:16:00,
2013-08-16 00:19:00,59.9,57.3,30.08,SE,142,0.0,0.0,91,0.00,,,0.00,WeatherCatV1.21B27,2013-08-16 05:19:00,
2013-08-16 00:20:00,59.9,57.3,30.08,SE,142,0.0,0.0,91,0.00,,,0.00,WeatherCatV1.21B27,2013-08-16 05:20:00,
2013-08-16 00:25:00,59.5,57.2,30.08,SE,142,0.0,0.0,92,0.00,,,0.00,WeatherCatV1.21B27,2013-08-16 05:25:00,
2013-08-16 00:30:00,59.2,56.9,30.08,SE,142,0.0,0.0,92,0.00,,,0.00,WeatherCatV1.21B27,2013-08-16 05:30:00,
2013-08-16 00:35:00,58.9,56.9,30.08,SE,142,0.0,0.0,93,0.00,,,0.00,WeatherCatV1.21B27,2013-08-16 05:35:00,
2013-08-16 00:40:00,58.6,56.6,30.08,SE,142,0.0,0.0,93,0.00,,,0.00,WeatherCatV1.21B27,2013-08-16 05:40:00,
2013-08-16 00:45:00,58.4,56.4,30.08,SE,142,0.0,0.0,93,0.00,,,0.00,WeatherCatV1.21B27,2013-08-16 05:45:00,
2013-08-16 00:50:00,58.2,56.5,30.07,SE,142,0.0,0.0,94,0.00,,,0.00,WeatherCatV1.21B27,2013-08-16 05:50:00,
2013-08-16 00:55:00,58.0,56.3,30.07,SE,142,0.0,0.0,94,0.00,,,0.00,WeatherCatV1.21B27,2013-08-16 05:55:00,
2013-08-16 01:00:00,57.8,56.1,30.08,SE,142,0.0,0.0,94,0.00,,,0.00,WeatherCatV1.21B27,2013-08-16 06:00:00,
2013-08-16 01:05:00,57.6,55.9,30.07,SE,142,0.0,0.0,94,0.00,,,0.00,WeatherCatV1.21B27,2013-08-16 06:05:00,
2013-08-16 01:10:00,57.5,56.1,30.07,SE,142,0.0,0.0,95,0.00,,,0.00,WeatherCatV1.21B27,2013-08-16 06:10:00,
2013-08-16 01:15:00,57.4,56.0,30.07,SE,142,0.0,0.0,95,0.00,,,0.00,WeatherCatV1.21B27,2013-08-16 06:15:00,
2013-08-16 01:20:00,57.3,55.9,30.07,SE,142,0.0,0.0,95,0.00,,,0.00,WeatherCatV1.21B27,2013-08-16 06:20:00,
2013-08-16 01:25:00,57.2,55.8,30.07,SE,142,0.0,0.0,95,0.00,,,0.00,WeatherCatV1.21B27,2013-08-16 06:25:00,
2013-08-16 01:30:00,57.0,55.6,30.08,SE,142,0.0,0.0,95,0.00,,,0.00,WeatherCatV1.21B27,2013-08-16 06:30:00,
2013-08-16 01:35:00,56.9,55.5,30.08,SE,142,0.0,0.0,95,0.00,,,0.00,WeatherCatV1.21B27,2013-08-16 06:35:00,
2013-08-16 01:40:00,56.7,55.3,30.08,SE,142,0.0,0.0,95,0.00,,,0.00,WeatherCatV1.21B27,2013-08-16 06:40:00,
2013-08-16 01:45:00,56.6,55.5,30.08,SE,142,0.0,0.0,96,0.00,,,0.00,WeatherCatV1.21B27,2013-08-16 06:45:00,
2013-08-16 01:50:00,56.5,55.4,30.08,SE,142,0.0,0.0,96,0.00,,,0.00,WeatherCatV1.21B27,2013-08-16 06:50:00,
2013-08-16 01:55:00,56.6,55.5,30.08,SE,142,0.0,0.0,96,0.00,,,0.00,WeatherCatV1.21B27,2013-08-16 06:55:00,
2013-08-16 02:00:00,56.5,55.4,30.08,SE,142,0.0,0.0,96,0.00,,,0.00,WeatherCatV1.21B27,2013-08-16 07:00:00,
2013-08-16 02:05:00,56.4,55.3,30.08,SE,142,0.0,0.0,96,0.00,,,0.00,WeatherCatV1.21B27,2013-08-16 07:05:00,
2013-08-16 02:10:00,56.3,55.2,30.08,SE,142,0.0,0.0,96,0.00,,,0.00,WeatherCatV1.21B27,2013-08-16 07:10:00,
2013-08-16 02:15:00,56.2,55.1,30.08,SE,142,0.0,0.0,96,0.00,,,0.00,WeatherCatV1.21B27,2013-08-16 07:15:00,
2013-08-16 02:20:00,56.1,55.3,30.08,SE,142,0.0,0.0,97,0.00,,,0.00,WeatherCatV1.21B27,2013-08-16 07:20:00,
2013-08-16 02:25:00,56.0,54.9,30.08,SE,142,0.0,0.0,96,0.00,,,0.00,WeatherCatV1.21B27,2013-08-16 07:25:00,
2013-08-16 02:30:00,55.9,54.8,30.08,SE,142,0.0,0.0,96,0.00,,,0.00,WeatherCatV1.21B27,2013-08-16 07:30:00,
2013-08-16 02:35:00,55.8,55.0,30.08,SE,142,0.0,0.0,97,0.00,,,0.00,WeatherCatV1.21B27,2013-08-16 07:35:00,
2013-08-16 02:40:00,55.7,54.9,30.08,SE,142,0.0,0.0,97,0.00,,,0.00,WeatherCatV1.21B27,2013-08-16 07:40:00,
2013-08-16 02:45:00,55.7,54.9,30.08,SE,142,0.0,0.0,97,0.00,,,0.00,WeatherCatV1.21B27,2013-08-16 07:45:00,
2013-08-16 02:50:00,55.6,54.8,30.08,SE,142,0.0,0.0,97,0.00,,,0.00,WeatherCatV1.21B27,2013-08-16 07:50:00,
2013-08-16 02:55:00,55.5,54.7,30.08,SE,142,0.0,0.0,97,0.00,,,0.00,WeatherCatV1.21B27,2013-08-16 07:55:00,
2013-08-16 03:00:00,55.5,54.7,30.08,SE,142,0.0,0.0,97,0.00,,,0.00,WeatherCatV1.21B27,2013-08-16 08:00:00,
2013-08-16 03:05:00,55.4,54.6,30.08,SE,142,0.0,0.0,97,0.00,,,0.00,WeatherCatV1.21B27,2013-08-16 08:05:00,
2013-08-16 03:10:00,55.4,54.6,30.08,SE,142,0.0,0.0,97,0.00,,,0.00,WeatherCatV1.21B27,2013-08-16 08:10:00,
2013-08-16 03:15:00,55.3,54.5,30.08,SE,142,0.0,0.0,97,0.00,,,0.00,WeatherCatV1.21B27,2013-08-16 08:15:00,
2013-08-16 03:20:00,55.2,54.4,30.08,SE,142,0.0,0.0,97,0.00,,,0.00,WeatherCatV1.21B27,2013-08-16 08:20:00,
2013-08-16 03:25:00,55.1,54.3,30.08,SE,142,0.0,0.0,97,0.00,,,0.00,WeatherCatV1.21B27,2013-08-16 08:25:00,
2013-08-16 03:30:00,55.0,54.2,30.08,SE,142,0.0,0.0,97,0.00,,,0.00,WeatherCatV1.21B27,2013-08-16 08:30:00,
2013-08-16 03:35:00,55.1,54.3,30.08,SE,142,0.0,0.0,97,0.00,,,0.00,WeatherCatV1.21B27,2013-08-16 08:35:00,
2013-08-16 03:40:00,55.1,54.3,30.08,SE,142,0.0,0.0,97,0.00,,,0.00,WeatherCatV1.21B27,2013-08-16 08:40:00,
2013-08-16 03:45:00,55.1,54.3,30.08,SE,142,0.0,0.0,97,0.00,,,0.00,WeatherCatV1.21B27,2013-08-16 08:45:00,
2013-08-16 03:50:00,55.1,54.5,30.08,SE,142,0.0,0.0,98,0.00,,,0.00,WeatherCatV1.21B27,2013-08-16 08:50:00,
2013-08-16 03:55:00,55.2,54.6,30.08,SE,142,0.0,0.0,98,0.00,,,0.00,WeatherCatV1.21B27,2013-08-16 08:55:00,
2013-08-16 04:00:00,55.3,54.7,30.08,SE,142,0.0,0.0,98,0.00,,,0.00,WeatherCatV1.21B27,2013-08-16 09:00:00,
2013-08-16 04:05:00,55.3,54.7,30.08,SE,142,0.0,0.0,98,0.00,,,0.00,WeatherCatV1.21B27,2013-08-16 09:05:00,
2013-08-16 04:10:00,55.2,54.6,30.08,SE,142,0.0,0.0,98,0.00,,,0.00,WeatherCatV1.21B27,2013-08-16 09:10:00,
2013-08-16 04:15:00,55.3,54.7,30.08,SE,142,0.0,0.0,98,0.00,,,0.00,WeatherCatV1.21B27,2013-08-16 09:15:00,
2013-08-16 04:20:00,55.3,54.7,30.08,SE,142,0.0,0.0,98,0.00,,,0.00,WeatherCatV1.21B27,2013-08-16 09:20:00,
2013-08-16 04:25:00,55.4,54.8,30.08,SE,142,0.0,0.0,98,0.00,,,0.00,WeatherCatV1.21B27,2013-08-16 09:25:00,
2013-08-16 04:30:00,55.6,55.0,30.08,SE,142,0.0,0.0,98,0.00,,,0.00,WeatherCatV1.21B27,2013-08-16 09:30:00,
2013-08-16 04:35:00,55.7,55.1,30.08,SE,142,0.0,0.0,98,0.00,,,0.00,WeatherCatV1.21B27,2013-08-16 09:35:00,
2013-08-16 04:40:00,56.0,55.4,30.09,SE,142,1.0,2.0,98,0.00,,,0.00,WeatherCatV1.21B27,2013-08-16 09:40:00,
2013-08-16 04:45:00,56.3,56.0,30.09,SE,142,0.0,0.0,99,0.00,,,0.00,WeatherCatV1.21B27,2013-08-16 09:45:00,
2013-08-16 04:50:00,56.5,56.2,30.09,SE,142,0.0,1.0,99,0.00,,,0.00,WeatherCatV1.21B27,2013-08-16 09:50:00,
2013-08-16 04:55:00,56.6,56.0,30.09,SE,142,0.0,0.0,98,0.00,,,0.00,WeatherCatV1.21B27,2013-08-16 09:55:00,
2013-08-16 05:00:00,56.7,56.1,30.09,SE,142,0.0,0.0,98,0.00,,,0.00,WeatherCatV1.21B27,2013-08-16 10:00:00,
2013-08-16 05:05:00,56.8,56.2,30.09,SE,142,0.0,0.0,98,0.00,,,0.00,WeatherCatV1.21B27,2013-08-16 10:05:00,
2013-08-16 05:10:00,56.8,56.2,30.09,SE,142,0.0,0.0,98,0.00,,,0.00,WeatherCatV1.21B27,2013-08-16 10:10:00,
2013-08-16 05:15:00,56.9,56.3,30.08,SE,142,0.0,1.0,98,0.00,,,0.00,WeatherCatV1.21B27,2013-08-16 10:15:00,
2013-08-16 05:20:00,56.9,56.3,30.08,SE,142,0.0,0.0,98,0.00,,,0.00,WeatherCatV1.21B27,2013-08-16 10:20:00,
2013-08-16 05:25:00,57.0,56.4,30.08,SE,142,0.0,0.0,98,0.00,,,0.00,WeatherCatV1.21B27,2013-08-16 10:25:00,
2013-08-16 05:30:00,57.1,56.5,30.09,SE,142,0.0,0.0,98,0.00,,,0.00,WeatherCatV1.21B27,2013-08-16 10:30:00,
2013-08-16 05:35:00,57.1,56.5,30.08,SE,142,0.0,0.0,98,0.00,,,0.00,WeatherCatV1.21B27,2013-08-16 10:35:00,
2013-08-16 05:40:00,57.2,56.6,30.08,SE,142,0.0,1.0,98,0.00,,,0.00,WeatherCatV1.21B27,2013-08-16 10:40:00,
2013-08-16 05:45:00,57.3,56.7,30.08,SE,142,0.0,0.0,98,0.00,,,0.00,WeatherCatV1.21B27,2013-08-16 10:45:00,
2013-08-16 05:50:00,57.3,56.5,30.08,SE,142,0.0,1.0,97,0.00,,,0.00,WeatherCatV1.21B27,2013-08-16 10:50:00,
2013-08-16 05:55:00,57.4,56.5,30.08,SE,142,0.0,0.0,97,0.00,,,0.00,WeatherCatV1.21B27,2013-08-16 10:55:00,
2013-08-16 06:00:00,57.4,56.5,30.09,SE,142,0.0,0.0,97,0.00,,,0.00,WeatherCatV1.21B27,2013-08-16 11:00:00,
2013-08-16 06:05:00,57.5,56.7,30.09,SE,142,0.0,0.0,97,0.00,,,0.00,WeatherCatV1.21B27,2013-08-16 11:05:00,
2013-08-16 06:10:00,57.6,56.8,30.09,SE,142,0.0,0.0,97,0.00,,,0.00,WeatherCatV1.21B27,2013-08-16 11:10:00,
2013-08-16 06:15:00,57.6,56.8,30.09,SE,142,0.0,0.0,97,0.00,,,0.00,WeatherCatV1.21B27,2013-08-16 11:15:00,
2013-08-16 06:20:00,57.8,56.7,30.09,SE,142,0.0,0.0,96,0.00,,,0.00,WeatherCatV1.21B27,2013-08-16 11:20:00,
2013-08-16 06:25:00,57.8,56.7,30.09,SE,142,0.0,0.0,96,0.00,,,0.00,WeatherCatV1.21B27,2013-08-16 11:25:00,
2013-08-16 06:30:00,58.0,56.9,30.09,SE,142,0.0,0.0,96,0.00,,,0.00,WeatherCatV1.21B27,2013-08-16 11:30:00,
2013-08-16 06:35:00,58.1,57.0,30.09,SE,142,0.0,0.0,96,0.00,,,0.00,WeatherCatV1.21B27,2013-08-16 11:35:00,
2013-08-16 06:40:00,58.1,57.0,30.10,SE,142,0.0,0.0,96,0.00,,,0.00,WeatherCatV1.21B27,2013-08-16 11:40:00,
2013-08-16 06:45:00,58.2,57.1,30.09,SE,142,0.0,0.0,96,0.00,,,0.00,WeatherCatV1.21B27,2013-08-16 11:45:00,
2013-08-16 06:50:00,58.2,57.1,30.09,SE,142,0.0,0.0,96,0.00,,,0.00,WeatherCatV1.21B27,2013-08-16 11:50:00,
2013-08-16 06:55:00,58.3,56.9,30.09,SE,142,0.0,1.0,95,0.00,,,0.00,WeatherCatV1.21B27,2013-08-16 11:55:00,
2013-08-16 07:00:00,58.4,57.0,30.09,SE,142,0.0,1.0,95,0.00,,,0.00,WeatherCatV1.21B27,2013-08-16 12:00:00,
2013-08-16 07:05:00,58.4,57.0,30.09,SE,142,1.0,1.0,95,0.00,,,0.00,WeatherCatV1.21B27,2013-08-16 12:05:00,
2013-08-16 07:10:00,58.5,57.1,30.09,SE,142,0.0,0.0,95,0.00,,,0.00,WeatherCatV1.21B27,2013-08-16 12:10:00,
2013-08-16 07:15:00,58.7,57.3,30.10,SE,142,0.0,1.0,95,0.00,,,0.00,WeatherCatV1.21B27,2013-08-16 12:15:00,
2013-08-16 07:20:00,58.8,57.1,30.10,SE,142,0.0,1.0,94,0.00,,,0.00,WeatherCatV1.21B27,2013-08-16 12:20:00,
2013-08-16 07:25:00,58.9,57.2,30.10,SE,142,0.0,1.0,94,0.00,,,0.00,WeatherCatV1.21B27,2013-08-16 12:25:00,
2013-08-16 07:30:00,59.0,57.3,30.10,SE,142,0.0,0.0,94,0.00,,,0.00,WeatherCatV1.21B27,2013-08-16 12:30:00,
2013-08-16 07:35:00,59.1,57.4,30.10,SE,142,0.0,1.0,94,0.00,,,0.00,WeatherCatV1.21B27,2013-08-16 12:35:00,
2013-08-16 07:40:00,59.3,57.6,30.10,SE,142,0.0,2.0,94,0.00,,,0.00,WeatherCatV1.21B27,2013-08-16 12:40:00,
2013-08-16 07:45:00,59.4,57.7,30.10,SE,142,1.0,3.0,94,0.00,,,0.00,WeatherCatV1.21B27,2013-08-16 12:45:00,
2013-08-16 07:50:00,59.5,57.5,30.11,SE,142,1.0,2.0,93,0.00,,,0.00,WeatherCatV1.21B27,2013-08-16 12:50:00,
2013-08-16 07:55:00,59.5,57.5,30.11,SE,142,0.0,1.0,93,0.00,,,0.00,WeatherCatV1.21B27,2013-08-16 12:55:00,
2013-08-16 08:00:00,59.6,57.6,30.11,SE,142,0.0,1.0,93,0.00,,,0.00,WeatherCatV1.21B27,2013-08-16 13:00:00,
2013-08-16 08:05:00,59.7,57.7,30.11,SE,142,0.0,3.0,93,0.00,,,0.00,WeatherCatV1.21B27,2013-08-16 13:05:00,
2013-08-16 08:10:00,59.8,57.8,30.11,SE,138,0.0,0.0,93,0.00,,,0.00,WeatherCatV1.21B27,2013-08-16 13:10:00,
2013-08-16 08:15:00,59.8,57.8,30.11,SE,137,0.0,2.0,93,0.00,,,0.00,WeatherCatV1.21B27,2013-08-16 13:15:00,
2013-08-16 08:20:00,59.9,57.9,30.11,SE,137,0.0,1.0,93,0.00,,,0.00,WeatherCatV1.21B27,2013-08-16 13:20:00,
2013-08-16 08:25:00,59.9,57.9,30.11,SE,137,0.0,3.0,93,0.00,,,0.00,WeatherCatV1.21B27,2013-08-16 13:25:00,
2013-08-16 08:30:00,59.9,57.9,30.11,SE,137,0.0,2.0,93,0.00,,,0.00,WeatherCatV1.21B27,2013-08-16 13:30:00,
2013-08-16 08:35:00,60.0,58.0,30.11,SE,137,0.0,2.0,93,0.00,,,0.00,WeatherCatV1.21B27,2013-08-16 13:35:00,
2013-08-16 08:40:00,60.0,58.0,30.11,SE,137,0.0,2.0,93,0.00,,,0.00,WeatherCatV1.21B27,2013-08-16 13:40:00,
2013-08-16 08:45:00,60.0,58.0,30.11,SE,135,1.0,1.0,93,0.00,,,0.00,WeatherCatV1.21B27,2013-08-16 13:45:00,
2013-08-16 08:50:00,60.1,58.1,30.11,SE,133,0.0,1.0,93,0.00,,,0.00,WeatherCatV1.21B27,2013-08-16 13:50:00,
2013-08-16 08:55:00,60.1,58.1,30.11,SE,133,0.0,1.0,93,0.00,,,0.00,WeatherCatV1.21B27,2013-08-16 13:55:00,
2013-08-16 09:00:00,60.1,58.4,30.12,SE,133,0.0,4.0,94,0.00,,,0.00,WeatherCatV1.21B27,2013-08-16 14:00:00,
2013-08-16 09:05:00,60.0,58.3,30.12,SE,133,0.0,3.0,94,0.00,,,0.00,WeatherCatV1.21B27,2013-08-16 14:05:00,
2013-08-16 09:10:00,60.0,58.6,30.12,SE,133,0.0,1.0,95,0.00,,,0.00,WeatherCatV1.21B27,2013-08-16 14:10:00,
2013-08-16 09:15:00,60.0,58.6,30.12,SE,133,0.0,1.0,95,0.00,,,0.01,WeatherCatV1.21B27,2013-08-16 14:15:00,
2013-08-16 09:20:00,60.0,58.6,30.12,SE,133,0.0,1.0,95,0.00,,,0.01,WeatherCatV1.21B27,2013-08-16 14:20:00,
2013-08-16 09:25:00,59.9,58.8,30.12,SE,133,0.0,0.0,96,0.00,,,0.01,WeatherCatV1.21B27,2013-08-16 14:25:00,
2013-08-16 09:30:00,60.0,58.8,30.12,SE,133,0.0,1.0,96,0.00,,,0.01,WeatherCatV1.21B27,2013-08-16 14:30:00,
2013-08-16 09:35:00,60.1,59.2,30.12,SE,133,0.0,0.0,97,0.00,,,0.01,WeatherCatV1.21B27,2013-08-16 14:35:00,
2013-08-16 09:40:00,60.2,59.0,30.12,SE,133,1.0,2.0,96,0.00,,,0.01,WeatherCatV1.21B27,2013-08-16 14:40:00,
2013-08-16 09:45:00,60.3,59.2,30.12,SE,133,0.0,2.0,96,0.00,,,0.01,WeatherCatV1.21B27,2013-08-16 14:45:00,
2013-08-16 09:50:00,60.4,59.2,30.12,ESE,102,0.0,2.0,96,0.00,,,0.01,WeatherCatV1.21B27,2013-08-16 14:50:00,
2013-08-16 09:55:00,60.5,59.3,30.12,ESE,102,0.0,3.0,96,0.00,,,0.01,WeatherCatV1.21B27,2013-08-16 14:55:00,
2013-08-16 10:00:00,60.6,59.5,30.12,ESE,102,1.0,1.0,96,0.00,,,0.01,WeatherCatV1.21B27,2013-08-16 15:00:00,
2013-08-16 10:05:00,60.8,59.7,30.12,ESE,120,2.0,3.0,96,0.00,,,0.01,WeatherCatV1.21B27,2013-08-16 15:05:00,
2013-08-16 10:10:00,61.0,59.8,30.12,ESE,122,0.0,1.0,96,0.00,,,0.01,WeatherCatV1.21B27,2013-08-16 15:10:00,
2013-08-16 10:15:00,61.3,59.8,30.12,ESE,112,0.0,4.0,95,0.00,,,0.01,WeatherCatV1.21B27,2013-08-16 15:15:00,
2013-08-16 10:20:00,61.6,59.8,30.12,SSE,158,3.0,5.0,94,0.00,,,0.01,WeatherCatV1.21B27,2013-08-16 15:20:00,
2013-08-16 10:25:00,61.7,60.0,30.12,SSE,158,0.0,2.0,94,0.00,,,0.01,WeatherCatV1.21B27,2013-08-16 15:25:00,
2013-08-16 10:30:00,61.8,60.0,30.12,SSE,158,2.0,3.0,94,0.00,,,0.01,WeatherCatV1.21B27,2013-08-16 15:30:00,
2013-08-16 10:35:00,62.0,60.2,30.12,SE,127,0.0,4.0,94,0.00,,,0.01,WeatherCatV1.21B27,2013-08-16 15:35:00,
2013-08-16 10:40:00,62.1,60.0,30.12,SE,125,1.0,7.0,93,0.00,,,0.01,WeatherCatV1.21B27,2013-08-16 15:40:00,
2013-08-16 10:45:00,62.2,60.2,30.12,SE,133,2.0,3.0,93,0.00,,,0.01,WeatherCatV1.21B27,2013-08-16 15:45:00,
2013-08-16 10:50:00,62.2,59.8,30.12,SE,131,0.0,6.0,92,0.00,,,0.01,WeatherCatV1.21B27,2013-08-16 15:50:00,
2013-08-16 10:55:00,62.2,59.8,30.12,SE,142,0.0,4.0,92,0.00,,,0.01,WeatherCatV1.21B27,2013-08-16 15:55:00,
2013-08-16 11:00:00,62.2,59.8,30.12,ESE,120,3.0,3.0,92,0.00,,,0.01,WeatherCatV1.21B27,2013-08-16 16:00:00,
2013-08-16 11:05:00,62.4,60.3,30.12,East,88,0.0,0.0,93,0.00,,,0.01,WeatherCatV1.21B27,2013-08-16 16:05:00,
2013-08-16 11:10:00,62.8,60.7,30.12,ESE,120,2.0,3.0,93,0.00,,,0.01,WeatherCatV1.21B27,2013-08-16 16:10:00,
2013-08-16 11:15:00,63.2,60.5,30.12,ESE,118,2.0,3.0,91,0.00,,,0.01,WeatherCatV1.21B27,2013-08-16 16:15:00,
2013-08-16 11:20:00,63.5,60.8,30.12,SE,127,0.0,3.0,91,0.00,,,0.01,WeatherCatV1.21B27,2013-08-16 16:20:00,
2013-08-16 11:25:00,63.7,60.7,30.12,SE,124,1.0,3.0,90,0.00,,,0.01,WeatherCatV1.21B27,2013-08-16 16:25:00,
2013-08-16 11:30:00,63.8,60.5,30.13,East,94,0.0,3.0,89,0.00,,,0.01,WeatherCatV1.21B27,2013-08-16 16:30:00,
2013-08-16 11:35:00,64.1,61.1,30.12,SE,143,0.0,2.0,90,0.00,,,0.01,WeatherCatV1.21B27,2013-08-16 16:35:00,
2013-08-16 11:40:00,64.3,60.3,30.13,SE,127,0.0,5.0,87,0.00,,,0.01,WeatherCatV1.21B27,2013-08-16 16:40:00,
2013-08-16 11:45:00,64.4,60.4,30.13,ESE,118,0.0,2.0,87,0.00,,,0.01,WeatherCatV1.21B27,2013-08-16 16:45:00,
2013-08-16 11:50:00,64.5,59.9,30.12,ESE,116,4.0,7.0,85,0.00,,,0.01,WeatherCatV1.21B27,2013-08-16 16:50:00,
2013-08-16 11:55:00,64.5,60.2,30.13,SE,144,0.0,3.0,86,0.00,,,0.01,WeatherCatV1.21B27,2013-08-16 16:55:00,
2013-08-16 12:00:00,64.6,60.3,30.12,SE,133,2.0,2.0,86,0.00,,,0.01,WeatherCatV1.21B27,2013-08-16 17:00:00,
2013-08-16 12:05:00,64.7,60.4,30.12,SE,124,0.0,2.0,86,0.00,,,0.01,WeatherCatV1.21B27,2013-08-16 17:05:00,
2013-08-16 12:10:00,64.7,60.1,30.12,ESE,121,5.0,7.0,85,0.00,,,0.01,WeatherCatV1.21B27,2013-08-16 17:10:00,
2013-08-16 12:15:00,64.7,60.4,30.12,ESE,122,4.0,7.0,86,0.00,,,0.01,WeatherCatV1.21B27,2013-08-16 17:15:00,
2013-08-16 12:20:00,64.8,60.2,30.12,East,91,7.0,9.0,85,0.00,,,0.01,WeatherCatV1.21B27,2013-08-16 17:20:00,
2013-08-16 12:25:00,64.9,59.9,30.12,SE,139,2.0,4.0,84,0.00,,,0.01,WeatherCatV1.21B27,2013-08-16 17:25:00,
2013-08-16 12:30:00,65.0,60.0,30.12,South,178,0.0,2.0,84,0.00,,,0.01,WeatherCatV1.21B27,2013-08-16 17:30:00,
2013-08-16 12:35:00,65.0,60.0,30.12,East,87,1.0,5.0,84,0.00,,,0.01,WeatherCatV1.21B27,2013-08-16 17:35:00,
2013-08-16 12:40:00,65.0,60.0,30.12,ESE,120,0.0,2.0,84,0.00,,,0.01,WeatherCatV1.21B27,2013-08-16 17:40:00,
2013-08-16 12:45:00,65.2,60.2,30.11,SE,139,0.0,3.0,84,0.00,,,0.01,WeatherCatV1.21B27,2013-08-16 17:45:00,
2013-08-16 12:50:00,65.8,60.8,30.11,SE,124,4.0,8.0,84,0.00,,,0.01,WeatherCatV1.21B27,2013-08-16 17:50:00,
2013-08-16 12:55:00,66.1,61.1,30.11,SE,145,0.0,3.0,84,0.00,,,0.01,WeatherCatV1.21B27,2013-08-16 17:55:00,
2013-08-16 13:00:00,66.3,60.6,30.11,SE,124,0.0,7.0,82,0.00,,,0.01,WeatherCatV1.21B27,2013-08-16 18:00:00,
2013-08-16 13:05:00,66.4,60.7,30.11,ESE,122,3.0,5.0,82,0.00,,,0.01,WeatherCatV1.21B27,2013-08-16 18:05:00,
2013-08-16 13:10:00,66.5,60.5,30.11,East,98,1.0,7.0,81,0.00,,,0.01,WeatherCatV1.21B27,2013-08-16 18:10:00,
2013-08-16 13:15:00,66.7,61.0,30.11,ESE,107,1.0,3.0,82,0.00,,,0.01,WeatherCatV1.21B27,2013-08-16 18:15:00,
2013-08-16 13:20:00,67.0,61.3,30.11,SE,126,2.0,7.0,82,0.00,,,0.01,WeatherCatV1.21B27,2013-08-16 18:20:00,
2013-08-16 13:25:00,67.2,61.2,30.11,East,93,2.0,7.0,81,0.00,,,0.01,WeatherCatV1.21B27,2013-08-16 18:25:00,
2013-08-16 13:30:00,67.3,61.3,30.11,SSE,157,2.0,4.0,81,0.00,,,0.01,WeatherCatV1.21B27,2013-08-16 18:30:00,
2013-08-16 13:35:00,67.4,61.0,30.11,ESE,110,5.0,6.0,80,0.00,,,0.01,WeatherCatV1.21B27,2013-08-16 18:35:00,
2013-08-16 13:40:00,67.4,61.0,30.10,SE,133,4.0,6.0,80,0.00,,,0.01,WeatherCatV1.21B27,2013-08-16 18:40:00,
2013-08-16 13:45:00,67.4,61.0,30.10,SE,132,4.0,7.0,80,0.00,,,0.01,WeatherCatV1.21B27,2013-08-16 18:45:00,
2013-08-16 13:50:00,67.5,61.5,30.10,ESE,120,4.0,9.0,81,0.00,,,0.01,WeatherCatV1.21B27,2013-08-16 18:50:00,
2013-08-16 13:55:00,67.5,61.5,30.10,ESE,110,1.0,7.0,81,0.00,,,0.01,WeatherCatV1.21B27,2013-08-16 18:55:00,
2013-08-16 14:00:00,67.6,61.2,30.10,SE,142,0.0,3.0,80,0.00,,,0.01,WeatherCatV1.21B27,2013-08-16 19:00:00,
2013-08-16 14:05:00,67.7,61.3,30.10,SE,126,3.0,7.0,80,0.00,,,0.01,WeatherCatV1.21B27,2013-08-16 19:05:00,
2013-08-16 14:11:00,67.8,61.8,30.10,SSE,151,3.0,4.0,81,0.00,,,0.01,WeatherCatV1.21B27,2013-08-16 19:11:00,
2013-08-16 14:16:00,68.0,61.2,30.10,SE,134,3.0,5.0,79,0.00,,,0.01,WeatherCatV1.21B27,2013-08-16 19:16:00,
2013-08-16 14:21:00,68.3,61.9,30.10,ESE,118,2.0,2.0,80,0.00,,,0.01,WeatherCatV1.21B27,2013-08-16 19:21:00,
2013-08-16 14:26:00,68.6,61.8,30.10,ESE,116,0.0,4.0,79,0.00,,,0.01,WeatherCatV1.21B27,2013-08-16 19:26:00,
2013-08-16 14:31:00,68.6,61.5,30.10,SE,141,1.0,6.0,78,0.00,,,0.01,WeatherCatV1.21B27,2013-08-16 19:31:00,
2013-08-16 14:36:00,68.5,61.4,30.10,East,97,2.0,7.0,78,0.00,,,0.01,WeatherCatV1.21B27,2013-08-16 19:36:00,
2013-08-16 14:41:00,68.4,61.3,30.10,ESE,112,0.0,3.0,78,0.00,,,0.01,WeatherCatV1.21B27,2013-08-16 19:41:00,
2013-08-16 14:46:00,68.6,61.8,30.10,ESE,112,1.0,3.0,79,0.00,,,0.01,WeatherCatV1.21B27,2013-08-16 19:46:00,
2013-08-16 14:51:00,68.9,61.8,30.10,ESE,114,2.0,7.0,78,0.00,,,0.01,WeatherCatV1.21B27,2013-08-16 19:51:00,
2013-08-16 14:56:00,68.8,60.9,30.10,SE,138,3.0,9.0,76,0.00,,,0.01,WeatherCatV1.21B27,2013-08-16 19:56:00,
2013-08-16 15:01:00,68.6,61.5,30.10,ESE,114,5.0,5.0,78,0.00,,,0.01,WeatherCatV1.21B27,2013-08-16 20:01:00,
2013-08-16 15:06:00,68.5,61.4,30.10,SE,139,0.0,4.0,78,0.00,,,0.01,WeatherCatV1.21B27,2013-08-16 20:06:00,
2013-08-16 15:11:00,68.4,61.3,30.10,ESE,103,2.0,3.0,78,0.00,,,0.01,WeatherCatV1.21B27,2013-08-16 20:11:00,
2013-08-16 15:16:00,68.3,61.2,30.10,SW,216,1.0,3.0,78,0.00,,,0.01,WeatherCatV1.21B27,2013-08-16 20:16:00,
2013-08-16 15:21:00,68.1,61.0,30.10,SSE,152,0.0,7.0,78,0.00,,,0.01,WeatherCatV1.21B27,2013-08-16 20:21:00,
2013-08-16 15:26:00,68.0,61.2,30.10,ESE,118,2.0,3.0,79,0.00,,,0.01,WeatherCatV1.21B27,2013-08-16 20:26:00,
2013-08-16 15:31:00,68.0,61.6,30.10,ESE,120,0.0,1.0,80,0.00,,,0.01,WeatherCatV1.21B27,2013-08-16 20:31:00,
2013-08-16 15:36:00,68.1,61.3,30.10,SE,133,0.0,4.0,79,0.00,,,0.01,WeatherCatV1.21B27,2013-08-16 20:36:00,
2013-08-16 15:41:00,68.1,61.3,30.09,SE,130,0.0,1.0,79,0.00,,,0.01,WeatherCatV1.21B27,2013-08-16 20:41:00,
2013-08-16 15:46:00,68.4,61.6,30.09,SE,146,3.0,6.0,79,0.00,,,0.01,WeatherCatV1.21B27,2013-08-16 20:46:00,
2013-08-16 15:51:00,68.6,61.8,30.09,East,100,1.0,3.0,79,0.00,,,0.01,WeatherCatV1.21B27,2013-08-16 20:51:00,
2013-08-16 15:56:00,68.8,62.0,30.09,SSE,147,6.0,7.0,79,0.00,,,0.01,WeatherCatV1.21B27,2013-08-16 20:56:00,
2013-08-16 16:01:00,68.9,61.8,30.09,SE,124,4.0,4.0,78,0.00,,,0.01,WeatherCatV1.21B27,2013-08-16 21:01:00,
2013-08-16 16:06:00,68.9,61.4,30.09,ESE,113,4.0,5.0,77,0.00,,,0.01,WeatherCatV1.21B27,2013-08-16 21:06:00,
2013-08-16 16:11:00,68.8,61.3,30.09,ESE,112,2.0,4.0,77,0.00,,,0.01,WeatherCatV1.21B27,2013-08-16 21:11:00,
2013-08-16 16:16:00,68.8,61.3,30.09,ESE,109,1.0,7.0,77,0.00,,,0.01,WeatherCatV1.21B27,2013-08-16 21:16:00,
2013-08-16 16:21:00,68.7,61.2,30.09,ESE,119,0.0,5.0,77,0.00,,,0.01,WeatherCatV1.21B27,2013-08-16 21:21:00,
2013-08-16 16:26:00,68.8,61.7,30.09,SE,124,1.0,4.0,78,0.00,,,0.01,WeatherCatV1.21B27,2013-08-16 21:26:00,
2013-08-16 16:31:00,68.9,61.0,30.09,ESE,122,1.0,5.0,76,0.00,,,0.01,WeatherCatV1.21B27,2013-08-16 21:31:00,
2013-08-16 16:36:00,69.1,61.9,30.09,ESE,123,2.0,4.0,78,0.00,,,0.01,WeatherCatV1.21B27,2013-08-16 21:36:00,
2013-08-16 16:41:00,69.2,61.7,30.09,SE,144,3.0,8.0,77,0.00,,,0.01,WeatherCatV1.21B27,2013-08-16 21:41:00,
2013-08-16 16:46:00,69.4,61.9,30.08,SE,140,2.0,2.0,77,0.00,,,0.01,WeatherCatV1.21B27,2013-08-16 21:46:00,
2013-08-16 16:51:00,69.4,61.9,30.08,SE,140,0.0,1.0,77,0.00,,,0.01,WeatherCatV1.21B27,2013-08-16 21:51:00,
2013-08-16 16:56:00,69.4,61.5,30.08,ESE,122,0.0,9.0,76,0.00,,,0.01,WeatherCatV1.21B27,2013-08-16 21:56:00,
2013-08-16 17:01:00,69.3,61.4,30.09,SE,124,4.0,8.0,76,0.00,,,0.01,WeatherCatV1.21B27,2013-08-16 22:01:00,
2013-08-16 17:06:00,69.0,61.1,30.08,ESE,105,2.0,8.0,76,0.00,,,0.01,WeatherCatV1.21B27,2013-08-16 22:06:00,
2013-08-16 17:11:00,68.9,61.4,30.08,SE,131,1.0,8.0,77,0.00,,,0.01,WeatherCatV1.21B27,2013-08-16 22:11:00,
2013-08-16 17:16:00,68.9,61.4,30.09,ESE,115,2.0,5.0,77,0.00,,,0.01,WeatherCatV1.21B27,2013-08-16 22:16:00,
2013-08-16 17:21:00,69.1,61.6,30.08,SE,126,1.0,7.0,77,0.00,,,0.01,WeatherCatV1.21B27,2013-08-16 22:21:00,
2013-08-16 17:26:00,69.2,61.7,30.08,SE,124,1.0,3.0,77,0.00,,,0.01,WeatherCatV1.21B27,2013-08-16 22:26:00,
2013-08-16 17:31:00,69.3,61.8,30.08,SE,129,2.0,3.0,77,0.00,,,0.01,WeatherCatV1.21B27,2013-08-16 22:31:00,
2013-08-16 17:36:00,69.4,61.9,30.09,SE,124,3.0,8.0,77,0.00,,,0.01,WeatherCatV1.21B27,2013-08-16 22:36:00,
2013-08-16 17:41:00,69.4,61.5,30.09,ESE,120,2.0,3.0,76,0.00,,,0.01,WeatherCatV1.21B27,2013-08-16 22:41:00,
2013-08-16 17:46:00,69.3,61.4,30.08,SE,131,2.0,10.0,76,0.00,,,0.01,WeatherCatV1.21B27,2013-08-16 22:46:00,
2013-08-16 17:51:00,69.2,61.3,30.08,SE,127,2.0,5.0,76,0.00,,,0.01,WeatherCatV1.21B27,2013-08-16 22:51:00,
2013-08-16 17:56:00,69.3,61.8,30.08,SE,125,1.0,5.0,77,0.00,,,0.01,WeatherCatV1.21B27,2013-08-16 22:56:00,
2013-08-16 18:01:00,69.3,61.8,30.08,ESE,116,2.0,5.0,77,0.00,,,0.01,WeatherCatV1.21B27,2013-08-16 23:01:00,
2013-08-16 18:06:00,69.4,61.9,30.08,ESE,118,0.0,4.0,77,0.00,,,0.01,WeatherCatV1.21B27,2013-08-16 23:06:00,
2013-08-16 18:11:00,69.5,61.6,30.08,East,82,1.0,5.0,76,0.00,,,0.01,WeatherCatV1.21B27,2013-08-16 23:11:00,
2013-08-16 18:16:00,69.5,61.2,30.08,SE,131,6.0,6.0,75,0.00,,,0.01,WeatherCatV1.21B27,2013-08-16 23:16:00,
2013-08-16 18:21:00,69.4,61.9,30.08,ESE,123,2.0,9.0,77,0.00,,,0.01,WeatherCatV1.21B27,2013-08-16 23:21:00,
2013-08-16 18:26:00,69.3,61.8,30.08,ESE,120,0.0,5.0,77,0.00,,,0.01,WeatherCatV1.21B27,2013-08-16 23:26:00,
2013-08-16 18:31:00,69.3,61.8,30.08,SE,138,5.0,5.0,77,0.00,,,0.01,WeatherCatV1.21B27,2013-08-16 23:31:00,
2013-08-16 18:36:00,69.2,61.3,30.08,ESE,107,2.0,7.0,76,0.00,,,0.01,WeatherCatV1.21B27,2013-08-16 23:36:00,
2013-08-16 18:41:00,69.2,61.7,30.08,SE,126,4.0,4.0,77,0.00,,,0.01,WeatherCatV1.21B27,2013-08-16 23:41:00,
2013-08-16 18:46:00,69.2,62.0,30.08,SE,125,2.0,3.0,78,0.00,,,0.01,WeatherCatV1.21B27,2013-08-16 23:46:00,
2013-08-16 18:51:00,69.3,61.8,30.08,ESE,115,0.0,3.0,77,0.00,,,0.01,WeatherCatV1.21B27,2013-08-16 23:51:00,
2013-08-16 18:56:00,69.2,61.3,30.08,SE,124,1.0,4.0,76,0.00,,,0.01,WeatherCatV1.21B27,2013-08-16 23:56:00,
2013-08-16 19:01:00,69.2,61.3,30.08,ESE,117,4.0,7.0,76,0.00,,,0.01,WeatherCatV1.21B27,2013-08-17 00:01:00,
2013-08-16 19:06:00,69.2,61.3,30.08,East,88,5.0,5.0,76,0.00,,,0.01,WeatherCatV1.21B27,2013-08-17 00:06:00,
2013-08-16 19:11:00,69.0,61.1,30.08,SE,144,0.0,4.0,76,0.00,,,0.01,WeatherCatV1.21B27,2013-08-17 00:11:00,
2013-08-16 19:16:00,68.9,61.0,30.08,SE,128,10.0,10.0,76,0.00,,,0.01,WeatherCatV1.21B27,2013-08-17 00:16:00,
2013-08-16 19:21:00,68.8,61.3,30.08,ESE,115,1.0,2.0,77,0.00,,,0.01,WeatherCatV1.21B27,2013-08-17 00:21:00,
2013-08-16 19:26:00,68.8,61.3,30.08,ESE,116,2.0,7.0,77,0.00,,,0.01,WeatherCatV1.21B27,2013-08-17 00:26:00,
2013-08-16 19:31:00,68.7,61.2,30.08,SE,127,2.0,3.0,77,0.00,,,0.01,WeatherCatV1.21B27,2013-08-17 00:31:00,
2013-08-16 19:36:00,68.6,61.1,30.08,ESE,120,3.0,4.0,77,0.00,,,0.01,WeatherCatV1.21B27,2013-08-17 00:36:00,
2013-08-16 19:41:00,68.5,61.0,30.08,SE,140,3.0,5.0,77,0.00,,,0.01,WeatherCatV1.21B27,2013-08-17 00:41:00,
2013-08-16 19:46:00,68.5,61.0,30.08,ESE,110,3.0,5.0,77,0.00,,,0.01,WeatherCatV1.21B27,2013-08-17 00:46:00,
2013-08-16 19:51:00,68.4,61.3,30.08,SE,136,0.0,3.0,78,0.00,,,0.01,WeatherCatV1.21B27,2013-08-17 00:51:00,
2013-08-16 19:56:00,68.3,61.2,30.08,ESE,117,3.0,3.0,78,0.00,,,0.01,WeatherCatV1.21B27,2013-08-17 00:56:00,
2013-08-16 20:01:00,68.3,61.2,30.08,SE,128,0.0,3.0,78,0.00,,,0.01,WeatherCatV1.21B27,2013-08-17 01:01:00,
2013-08-16 20:06:00,68.1,61.3,30.09,ESE,123,0.0,2.0,79,0.00,,,0.01,WeatherCatV1.21B27,2013-08-17 01:06:00,
2013-08-16 20:11:00,68.0,61.2,30.08,ESE,111,1.0,2.0,79,0.00,,,0.01,WeatherCatV1.21B27,2013-08-17 01:11:00,
2013-08-16 20:16:00,67.9,61.1,30.08,ESE,111,1.0,4.0,79,0.00,,,0.01,WeatherCatV1.21B27,2013-08-17 01:16:00,
2013-08-16 20:21:00,67.8,61.0,30.08,ESE,111,1.0,1.0,79,0.00,,,0.01,WeatherCatV1.21B27,2013-08-17 01:21:00,
2013-08-16 20:26:00,67.7,61.3,30.08,ESE,116,0.0,1.0,80,0.00,,,0.01,WeatherCatV1.21B27,2013-08-17 01:26:00,
2013-08-16 20:31:00,67.6,61.2,30.08,ESE,116,3.0,3.0,80,0.00,,,0.01,WeatherCatV1.21B27,2013-08-17 01:31:00,
2013-08-16 20:36:00,67.5,61.1,30.08,SE,137,2.0,3.0,80,0.00,,,0.01,WeatherCatV1.21B27,2013-08-17 01:36:00,
2013-08-16 20:41:00,67.4,61.0,30.08,ESE,116,1.0,4.0,80,0.00,,,0.01,WeatherCatV1.21B27,2013-08-17 01:41:00,
2013-08-16 20:46:00,67.3,60.9,30.08,ESE,118,2.0,2.0,80,0.00,,,0.01,WeatherCatV1.21B27,2013-08-17 01:46:00,
2013-08-16 20:51:00,67.2,60.8,30.08,ESE,122,0.0,3.0,80,0.00,,,0.01,WeatherCatV1.21B27,2013-08-17 01:51:00,
2013-08-16 20:56:00,67.1,60.7,30.09,ESE,122,0.0,1.0,80,0.00,,,0.01,WeatherCatV1.21B27,2013-08-17 01:56:00,
2013-08-16 21:01:00,67.1,60.7,30.09,ESE,114,1.0,7.0,80,0.00,,,0.01,WeatherCatV1.21B27,2013-08-17 02:01:00,
2013-08-16 21:06:00,67.0,61.0,30.09,ESE,114,0.0,1.0,81,0.00,,,0.01,WeatherCatV1.21B27,2013-08-17 02:06:00,
2013-08-16 21:11:00,67.0,60.6,30.09,SSE,147,0.0,4.0,80,0.00,,,0.01,WeatherCatV1.21B27,2013-08-17 02:11:00,
2013-08-16 21:16:00,66.9,60.5,30.09,ESE,110,0.0,2.0,80,0.00,,,0.01,WeatherCatV1.21B27,2013-08-17 02:16:00,
2013-08-16 21:21:00,66.9,60.9,30.09,SE,128,0.0,5.0,81,0.00,,,0.01,WeatherCatV1.21B27,2013-08-17 02:21:00,
2013-08-16 21:26:00,66.8,60.8,30.09,SE,128,1.0,4.0,81,0.00,,,0.01,WeatherCatV1.21B27,2013-08-17 02:26:00,
2013-08-16 21:31:00,66.8,60.8,30.09,ESE,119,1.0,4.0,81,0.00,,,0.01,WeatherCatV1.21B27,2013-08-17 02:31:00,
2013-08-16 21:36:00,66.7,60.7,30.09,SE,128,3.0,5.0,81,0.00,,,0.01,WeatherCatV1.21B27,2013-08-17 02:36:00,
2013-08-16 21:41:00,66.6,60.6,30.09,SE,139,0.0,2.0,81,0.00,,,0.01,WeatherCatV1.21B27,2013-08-17 02:41:00,
2013-08-16 21:46:00,66.5,60.5,30.09,ESE,116,3.0,4.0,81,0.00,,,0.01,WeatherCatV1.21B27,2013-08-17 02:46:00,
2013-08-16 21:51:00,66.4,60.4,30.10,ESE,113,1.0,4.0,81,0.00,,,0.01,WeatherCatV1.21B27,2013-08-17 02:51:00,
2013-08-16 21:56:00,66.3,60.3,30.09,ESE,113,0.0,3.0,81,0.00,,,0.01,WeatherCatV1.21B27,2013-08-17 02:56:00,
2013-08-16 22:01:00,66.2,60.2,30.09,ESE,120,2.0,3.0,81,0.00,,,0.01,WeatherCatV1.21B27,2013-08-17 03:01:00,
2013-08-16 22:06:00,66.1,60.1,30.10,ESE,117,0.0,4.0,81,0.00,,,0.01,WeatherCatV1.21B27,2013-08-17 03:06:00,
2013-08-16 22:11:00,66.0,60.3,30.10,ESE,123,0.0,2.0,82,0.00,,,0.01,WeatherCatV1.21B27,2013-08-17 03:11:00,
2013-08-16 22:16:00,65.9,60.2,30.09,ESE,123,0.0,4.0,82,0.00,,,0.01,WeatherCatV1.21B27,2013-08-17 03:16:00,
2013-08-16 22:21:00,65.7,60.0,30.09,ESE,123,0.0,2.0,82,0.00,,,0.01,WeatherCatV1.21B27,2013-08-17 03:21:00,
2013-08-16 22:26:00,65.5,60.2,30.09,SE,128,0.0,1.0,83,0.00,,,0.01,WeatherCatV1.21B27,2013-08-17 03:26:00,
2013-08-16 22:31:00,65.3,60.0,30.09,SE,128,0.0,1.0,83,0.00,,,0.01,WeatherCatV1.21B27,2013-08-17 03:31:00,
2013-08-16 22:36:00,65.0,60.0,30.09,SE,128,1.0,1.0,84,0.00,,,0.01,WeatherCatV1.21B27,2013-08-17 03:36:00,
2013-08-16 22:41:00,64.8,59.8,30.09,SE,125,0.0,1.0,84,0.00,,,0.01,WeatherCatV1.21B27,2013-08-17 03:41:00,
2013-08-16 22:46:00,64.7,59.8,30.09,SE,124,1.0,2.0,84,0.00,,,0.01,WeatherCatV1.21B27,2013-08-17 03:46:00,
2013-08-16 22:51:00,64.5,59.9,30.09,SE,124,1.0,4.0,85,0.00,,,0.01,WeatherCatV1.21B27,2013-08-17 03:51:00,
2013-08-16 22:56:00,64.4,59.8,30.09,SE,124,1.0,2.0,85,0.00,,,0.01,WeatherCatV1.21B27,2013-08-17 03:56:00,
2013-08-16 23:01:00,64.3,59.7,30.09,ESE,111,1.0,2.0,85,0.00,,,0.01,WeatherCatV1.21B27,2013-08-17 04:01:00,
2013-08-16 23:06:00,64.1,59.5,30.09,SE,132,0.0,2.0,85,0.00,,,0.01,WeatherCatV1.21B27,2013-08-17 04:06:00,
2013-08-16 23:11:00,64.0,59.7,30.09,ESE,122,1.0,3.0,86,0.00,,,0.01,WeatherCatV1.21B27,2013-08-17 04:11:00,
2013-08-16 23:16:00,63.9,59.3,30.09,SE,135,0.0,1.0,85,0.00,,,0.01,WeatherCatV1.21B27,2013-08-17 04:16:00,
2013-08-16 23:21:00,63.9,59.3,30.09,SE,138,1.0,3.0,85,0.00,,,0.01,WeatherCatV1.21B27,2013-08-17 04:21:00,
2013-08-16 23:26:00,63.9,59.3,30.10,SE,136,0.0,4.0,85,0.00,,,0.01,WeatherCatV1.21B27,2013-08-17 04:26:00,
2013-08-16 23:31:00,63.8,59.2,30.10,SE,135,0.0,2.0,85,0.00,,,0.01,WeatherCatV1.21B27,2013-08-17 04:31:00,
2013-08-16 23:36:00,63.8,59.2,30.10,SE,136,0.0,2.0,85,0.00,,,0.01,WeatherCatV1.21B27,2013-08-17 04:36:00,
2013-08-16 23:41:00,63.8,59.2,30.10,SE,139,0.0,1.0,85,0.00,,,0.01,WeatherCatV1.21B27,2013-08-17 04:41:00,
2013-08-16 23:46:00,63.7,59.1,30.10,SE,139,1.0,1.0,85,0.00,,,0.01,WeatherCatV1.21B27,2013-08-17 04:46:00,
2013-08-16 23:51:00,63.7,59.1,30.10,SE,139,3.0,3.0,85,0.00,,,0.01,WeatherCatV1.21B27,2013-08-17 04:51:00,
2013-08-16 23:56:00,63.7,59.1,30.10,SE,131,0.0,2.0,85,0.00,,,0.01,WeatherCatV1.21B27,2013-08-17 04:56:00,